Time;durP1;ratioP1;P1;durP2;ratioP2;P2;SDS_P1;SDS_P2;PMS_P1;PMS_P2;Temp;Humidity;BMP_temperature;BMP_pressure;BME280_temperature;BME280_humidity;BME280_pressure;Samples;Min_cycle;Max_cycle;Signal;HPM_P1;HPM_P2
2021/05/19 00:00:21;;;;;;;10.80;7.60;;;;;;;;;;779084;181;921319;-69
2021/05/19 00:02:47;;;;;;;12.77;8.07;;;;;;;;;;774873;178;915032;-69
2021/05/19 00:05:13;;;;;;;11.20;7.70;;;;;;;;;;771630;180;916774;-68
2021/05/19 00:07:39;;;;;;;9.83;7.70;;;;;;;;;;769441;178;910122;-68
2021/05/19 00:10:04;;;;;;;9.93;8.07;;;;;;;;;;774044;181;921672;-68
2021/05/19 00:12:30;;;;;;;10.07;7.63;;;;;;;;;;772085;180;916957;-69
2021/05/19 00:14:56;;;;;;;12.60;7.33;;;;;;;;;;769444;180;916597;-68
2021/05/19 00:17:22;;;;;;;13.57;7.60;;;;;;;;;;778261;178;1017936;-69
2021/05/19 00:19:48;;;;;;;8.67;7.33;;;;;;;;;;767440;178;920220;-69
2021/05/19 00:22:14;;;;;;;19.73;7.43;;;;;;;;;;768170;180;918629;-68
2021/05/19 00:24:39;;;;;;;10.40;7.37;;;;;;;;;;777924;180;919693;-68
2021/05/19 00:27:05;;;;;;;12.83;7.63;;;;;;;;;;770496;180;1082931;-68
2021/05/19 00:29:31;;;;;;;10.73;7.67;;;;;;;;;;773540;180;942781;-68
2021/05/19 00:31:57;;;;;;;9.67;7.87;;;;;;;;;;772316;181;920863;-68
2021/05/19 00:34:23;;;;;;;11.37;8.40;;;;;;;;;;770778;180;815952;-69
2021/05/19 00:36:49;;;;;;;14.07;9.40;;;;;;;;;;773791;180;919584;-69
2021/05/19 00:39:15;;;;;;;11.27;9.23;;;;;;;;;;775618;179;919084;-68
2021/05/19 00:41:41;;;;;;;11.77;8.97;;;;;;;;;;779397;180;943839;-69
2021/05/19 00:44:07;;;;;;;12.47;8.80;;;;;;;;;;773483;180;919165;-69
2021/05/19 00:46:33;;;;;;;14.57;7.97;;;;;;;;;;773836;178;919596;-69
2021/05/19 00:48:58;;;;;;;9.60;8.37;;;;;;;;;;780153;180;918793;-69
2021/05/19 00:51:24;;;;;;;15.67;8.93;;;;;;;;;;769355;180;918900;-69
2021/05/19 00:53:52;;;;;;;10.07;7.93;;;;;;;;;;775197;177;876860;-69
2021/05/19 00:56:16;;;;;;;13.03;8.20;;;;;;;;;;778628;181;919217;-69
2021/05/19 00:58:42;;;;;;;10.30;7.43;;;;;;;;;;775234;180;919842;-69
2021/05/19 01:01:08;;;;;;;10.53;8.17;;;;;;;;;;771672;179;919076;-68
2021/05/19 01:03:34;;;;;;;12.60;7.70;;;;;;;;;;768819;178;1841996;-67
2021/05/19 01:06:03;;;;;;;9.70;7.17;;;;;;;;;;771561;179;919510;-69
2021/05/19 01:10:58;;;;;;;10.27;8.23;;;;;;;;;;781381;179;816263;-70
2021/05/19 01:13:23;;;;;;;10.33;7.97;;;;;;;;;;777358;180;918880;-69
2021/05/19 01:15:49;;;;;;;13.80;8.00;;;;;;;;;;771787;180;1021233;-69
2021/05/19 01:18:15;;;;;;;15.67;8.47;;;;;;;;;;776057;180;919409;-69
2021/05/19 01:20:41;;;;;;;8.67;7.27;;;;;;;;;;769833;181;919030;-68
2021/05/19 01:23:07;;;;;;;8.73;6.93;;;;;;;;;;778235;179;918998;-69
2021/05/19 01:25:33;;;;;;;12.27;8.30;;;;;;;;;;773518;177;919570;-68
2021/05/19 01:28:00;;;;;;;14.77;7.50;;;;;;;;;;774431;178;919495;-69
2021/05/19 01:30:25;;;;;;;8.90;6.80;;;;;;;;;;774600;180;918732;-68
2021/05/19 01:32:51;;;;;;;9.60;8.17;;;;;;;;;;775145;180;919404;-69
2021/05/19 01:35:17;;;;;;;9.90;7.17;;;;;;;;;;778229;180;624999;-70
2021/05/19 01:37:43;;;;;;;10.70;7.20;;;;;;;;;;781047;180;630761;-69
2021/05/19 01:40:09;;;;;;;9.10;6.53;;;;;;;;;;773534;178;920798;-68
2021/05/19 01:42:35;;;;;;;10.57;6.90;;;;;;;;;;770549;180;921099;-68
2021/05/19 01:45:01;;;;;;;81.40;13.10;;;;;;;;;;761052;181;918808;-68
2021/05/19 01:47:29;;;;;;;13.70;6.20;;;;;;;;;;772931;180;914846;-70
2021/05/19 01:49:55;;;;;;;77.30;12.30;;;;;;;;;;761869;178;617539;-69
2021/05/19 01:52:21;;;;;;;7.67;6.30;;;;;;;;;;776882;179;915075;-68
2021/05/19 01:54:47;;;;;;;10.80;7.40;;;;;;;;;;780545;180;919485;-68
2021/05/19 01:57:13;;;;;;;10.37;6.77;;;;;;;;;;773553;180;919391;-69
2021/05/19 01:59:38;;;;;;;9.57;6.27;;;;;;;;;;773741;180;919419;-69
2021/05/19 02:02:04;;;;;;;10.80;6.87;;;;;;;;;;778496;180;919073;-70
2021/05/19 02:04:30;;;;;;;8.30;6.83;;;;;;;;;;772904;180;919168;-68
2021/05/19 02:06:57;;;;;;;8.27;6.80;;;;;;;;;;776595;180;919376;-69
2021/05/19 02:09:22;;;;;;;8.70;7.80;;;;;;;;;;772616;181;919642;-68
2021/05/19 02:11:48;;;;;;;10.60;8.40;;;;;;;;;;775574;180;918184;-69
2021/05/19 02:14:13;;;;;;;12.70;9.30;;;;;;;;;;776645;180;917865;-68
2021/05/19 02:16:39;;;;;;;12.03;8.37;;;;;;;;;;775663;180;919274;-69
2021/05/19 02:19:07;;;;;;;12.50;8.57;;;;;;;;;;779612;179;917720;-68
2021/05/19 02:21:31;;;;;;;13.23;9.32;;;;;;;;;;776063;177;920087;-68
2021/05/19 02:23:59;;;;;;;17.57;11.10;;;;;;;;;;770535;180;919547;-68
2021/05/19 02:26:24;;;;;;;15.20;9.47;;;;;;;;;;774642;180;919364;-69
2021/05/19 02:28:50;;;;;;;12.47;9.27;;;;;;;;;;766127;180;920099;-68
2021/05/19 02:31:16;;;;;;;17.10;9.45;;;;;;;;;;772190;180;919686;-68
2021/05/19 02:33:42;;;;;;;19.70;9.57;;;;;;;;;;770523;180;919272;-67
2021/05/19 02:36:08;;;;;;;15.30;9.27;;;;;;;;;;774581;180;943852;-69
2021/05/19 02:38:35;;;;;;;13.50;8.50;;;;;;;;;;774328;180;919232;-69
2021/05/19 02:41:00;;;;;;;11.07;8.07;;;;;;;;;;771107;180;919491;-68
2021/05/19 02:43:26;;;;;;;9.50;7.67;;;;;;;;;;776769;180;919971;-69
2021/05/19 02:45:51;;;;;;;11.23;8.27;;;;;;;;;;773018;180;920753;-69
2021/05/19 02:48:17;;;;;;;8.90;7.27;;;;;;;;;;772130;180;941104;-69
2021/05/19 02:50:43;;;;;;;8.33;6.20;;;;;;;;;;778038;180;919361;-69
2021/05/19 02:53:09;;;;;;;12.10;7.00;;;;;;;;;;773918;179;919581;-69
2021/05/19 02:55:35;;;;;;;9.70;7.57;;;;;;;;;;766477;178;2147474;-68
2021/05/19 02:58:01;;;;;;;8.50;7.20;;;;;;;;;;778258;181;920418;-69
2021/05/19 03:00:26;;;;;;;12.03;8.73;;;;;;;;;;772425;179;920381;-69
2021/05/19 03:02:53;;;;;;;11.30;7.77;;;;;;;;;;772706;178;1033779;-69
2021/05/19 03:05:19;;;;;;;9.70;7.67;;;;;;;;;;773317;179;930207;-69
2021/05/19 03:07:45;;;;;;;12.30;8.30;;;;;;;;;;781915;177;915520;-69
2021/05/19 03:10:11;;;;;;;13.15;8.82;;;;;;;;;;773913;181;920567;-68
2021/05/19 03:12:36;;;;;;;11.60;8.30;;;;;;;;;;769862;180;1020123;-69
2021/05/19 03:15:02;;;;;;;13.73;8.50;;;;;;;;;;777340;178;918736;-69
2021/05/19 03:17:28;;;;;;;13.20;8.00;;;;;;;;;;774255;180;919095;-69
2021/05/19 03:19:54;;;;;;;11.03;7.70;;;;;;;;;;768326;180;917811;-69
2021/05/19 03:22:20;;;;;;;13.07;7.30;;;;;;;;;;777129;181;919252;-69
2021/05/19 03:24:46;;;;;;;10.80;8.03;;;;;;;;;;770988;180;919154;-69
2021/05/19 03:27:12;;;;;;;12.57;8.47;;;;;;;;;;775186;178;919767;-69
2021/05/19 03:29:37;;;;;;;10.77;8.17;;;;;;;;;;770210;180;919208;-69
2021/05/19 03:32:04;;;;;;;11.70;7.90;;;;;;;;;;765984;180;919220;-69
2021/05/19 03:34:30;;;;;;;14.23;9.50;;;;;;;;;;769854;180;937186;-69
2021/05/19 03:36:56;;;;;;;13.00;9.17;;;;;;;;;;769942;180;956048;-69
2021/05/19 03:39:21;;;;;;;11.53;8.60;;;;;;;;;;779086;180;919387;-69
2021/05/19 03:41:47;;;;;;;13.80;9.00;;;;;;;;;;779447;180;627327;-69
2021/05/19 03:44:13;;;;;;;15.00;9.57;;;;;;;;;;778876;180;629625;-69
2021/05/19 03:46:39;;;;;;;15.40;9.20;;;;;;;;;;780009;180;815911;-69
2021/05/19 03:49:05;;;;;;;14.60;9.45;;;;;;;;;;767724;180;919760;-69
2021/05/19 03:51:30;;;;;;;16.63;10.67;;;;;;;;;;770202;179;919198;-69
2021/05/19 03:53:56;;;;;;;14.25;10.23;;;;;;;;;;777745;180;918555;-69
2021/05/19 03:56:22;;;;;;;15.03;10.00;;;;;;;;;;774612;179;919158;-69
2021/05/19 03:58:48;;;;;;;18.10;11.60;;;;;;;;;;771767;178;923291;-69
2021/05/19 04:01:14;;;;;;;17.57;10.77;;;;;;;;;;775077;180;919069;-69
2021/05/19 04:03:40;;;;;;;14.80;10.53;;;;;;;;;;777733;180;918923;-69
2021/05/19 04:06:05;;;;;;;18.00;11.73;;;;;;;;;;776783;180;930560;-69
2021/05/19 04:08:35;;;;;;;15.90;10.20;;;;;;;;;;772845;177;919258;-69
2021/05/19 04:11:01;;;;;;;20.23;12.07;;;;;;;;;;779039;180;944917;-70
2021/05/19 04:13:27;;;;;;;22.47;12.97;;;;;;;;;;771750;179;919052;-70
2021/05/19 04:15:54;;;;;;;21.57;12.07;;;;;;;;;;776620;177;919100;-70
2021/05/19 04:18:21;;;;;;;18.40;11.90;;;;;;;;;;772035;179;918942;-69
2021/05/19 04:20:46;;;;;;;23.57;13.67;;;;;;;;;;774199;180;919040;-70
2021/05/19 04:23:11;;;;;;;18.93;13.10;;;;;;;;;;770095;177;904191;-69
2021/05/19 04:25:38;;;;;;;27.73;14.10;;;;;;;;;;763489;180;919438;-69
2021/05/19 04:28:03;;;;;;;21.50;14.17;;;;;;;;;;781788;180;634316;-69
2021/05/19 04:30:29;;;;;;;22.63;14.77;;;;;;;;;;776161;180;628386;-72
2021/05/19 04:32:55;;;;;;;22.00;13.80;;;;;;;;;;774320;179;1020145;-70
2021/05/19 04:35:21;;;;;;;23.17;14.30;;;;;;;;;;779669;180;916787;-70
2021/05/19 04:37:46;;;;;;;19.87;12.80;;;;;;;;;;779935;179;643298;-69
2021/05/19 04:40:13;;;;;;;20.90;13.40;;;;;;;;;;775620;178;672646;-70
2021/05/19 04:42:38;;;;;;;20.80;13.37;;;;;;;;;;778509;180;916098;-70
2021/05/19 04:45:05;;;;;;;22.93;14.17;;;;;;;;;;773663;180;915409;-70
2021/05/19 04:47:31;;;;;;;23.10;13.90;;;;;;;;;;774232;180;919477;-70
2021/05/19 04:49:57;;;;;;;23.30;15.00;;;;;;;;;;771948;179;919454;-69
2021/05/19 04:52:23;;;;;;;18.80;13.00;;;;;;;;;;777739;180;926205;-70
2021/05/19 04:54:49;;;;;;;25.33;14.83;;;;;;;;;;772129;180;919510;-69
2021/05/19 04:57:14;;;;;;;24.02;13.82;;;;;;;;;;772410;180;902714;-70
2021/05/19 04:59:40;;;;;;;26.17;15.50;;;;;;;;;;778670;180;624570;-70
2021/05/19 05:02:06;;;;;;;24.47;14.77;;;;;;;;;;768856;181;618603;-70
2021/05/19 05:04:32;;;;;;;29.57;14.70;;;;;;;;;;777239;177;632330;-70
2021/05/19 05:06:58;;;;;;;25.80;13.93;;;;;;;;;;781033;179;626839;-70
2021/05/19 05:09:25;;;;;;;20.57;13.00;;;;;;;;;;776376;180;626282;-70
2021/05/19 05:11:49;;;;;;;18.40;12.53;;;;;;;;;;774137;181;627087;-69
2021/05/19 05:14:15;;;;;;;26.43;14.90;;;;;;;;;;776584;177;636576;-70
2021/05/19 05:16:41;;;;;;;24.90;15.50;;;;;;;;;;771700;180;627361;-70
2021/05/19 05:19:07;;;;;;;21.17;13.57;;;;;;;;;;776010;181;626066;-70
2021/05/19 05:21:33;;;;;;;21.40;14.30;;;;;;;;;;774860;178;617154;-70
2021/05/19 05:23:59;;;;;;;19.20;14.10;;;;;;;;;;781308;178;627543;-71
2021/05/19 05:26:24;;;;;;;19.57;13.37;;;;;;;;;;779002;179;623875;-71
2021/05/19 05:28:50;;;;;;;26.10;13.40;;;;;;;;;;780283;179;629610;-70
2021/05/19 05:31:16;;;;;;;21.07;12.67;;;;;;;;;;777824;180;633700;-70
2021/05/19 05:33:42;;;;;;;18.30;12.53;;;;;;;;;;772413;180;753955;-70
2021/05/19 05:36:08;;;;;;;18.07;13.00;;;;;;;;;;775164;181;625090;-72
2021/05/19 05:38:34;;;;;;;18.70;12.97;;;;;;;;;;776436;180;624661;-68
2021/05/19 05:41:00;;;;;;;22.73;13.40;;;;;;;;;;777739;180;621804;-70
2021/05/19 05:43:26;;;;;;;19.97;12.17;;;;;;;;;;778671;179;713591;-70
2021/05/19 05:45:51;;;;;;;19.70;13.17;;;;;;;;;;778829;180;643658;-70
2021/05/19 05:48:17;;;;;;;20.97;14.50;;;;;;;;;;781872;180;633362;-70
2021/05/19 05:50:43;;;;;;;19.85;12.57;;;;;;;;;;778900;178;683516;-69
2021/05/19 05:53:09;;;;;;;17.23;13.43;;;;;;;;;;770641;180;969405;-70
2021/05/19 05:55:35;;;;;;;18.43;12.33;;;;;;;;;;781418;180;626931;-70
2021/05/19 05:58:01;;;;;;;17.53;11.23;;;;;;;;;;774342;180;631635;-70
2021/05/19 06:00:27;;;;;;;15.40;10.33;;;;;;;;;;775854;178;625793;-70
2021/05/19 06:02:52;;;;;;;13.20;11.10;;;;;;;;;;781700;180;617850;-69
2021/05/19 06:05:18;;;;;;;12.53;9.13;;;;;;;;;;778601;181;621237;-68
2021/05/19 06:07:44;;;;;;;12.37;10.20;;;;;;;;;;779377;180;623347;-69
2021/05/19 06:10:10;;;;;;;13.30;9.97;;;;;;;;;;776303;180;646325;-69
2021/05/19 06:12:36;;;;;;;14.73;9.33;;;;;;;;;;780587;180;620130;-69
2021/05/19 06:15:02;;;;;;;11.50;8.30;;;;;;;;;;766868;180;629455;-68
2021/05/19 06:17:28;;;;;;;16.10;9.27;;;;;;;;;;777520;180;624283;-68
2021/05/19 06:19:54;;;;;;;11.20;9.27;;;;;;;;;;767206;180;623695;-69
2021/05/19 06:22:19;;;;;;;11.00;9.03;;;;;;;;;;777682;178;648713;-68
2021/05/19 06:24:45;;;;;;;14.17;8.97;;;;;;;;;;777667;178;629606;-68
2021/05/19 06:27:11;;;;;;;14.90;10.20;;;;;;;;;;780952;177;633435;-67
2021/05/19 06:29:37;;;;;;;15.07;10.80;;;;;;;;;;771722;180;1667044;-67
2021/05/19 06:32:03;;;;;;;10.70;9.20;;;;;;;;;;775709;180;628536;-67
2021/05/19 06:34:29;;;;;;;11.67;9.10;;;;;;;;;;775627;180;616669;-68
2021/05/19 06:36:55;;;;;;;12.97;8.40;;;;;;;;;;780542;178;629294;-67
2021/05/19 06:39:22;;;;;;;16.13;8.00;;;;;;;;;;780990;179;624865;-68
2021/05/19 06:41:48;;;;;;;13.30;7.47;;;;;;;;;;777778;177;622624;-68
2021/05/19 06:44:13;;;;;;;12.13;9.00;;;;;;;;;;780666;180;671362;-67
2021/05/19 06:46:39;;;;;;;9.20;7.30;;;;;;;;;;781666;179;633926;-68
2021/05/19 06:49:04;;;;;;;10.67;7.50;;;;;;;;;;779648;179;626427;-68
2021/05/19 06:51:30;;;;;;;8.30;7.20;;;;;;;;;;783703;177;637239;-68
2021/05/19 06:53:56;;;;;;;10.93;8.23;;;;;;;;;;779561;177;631064;-68
2021/05/19 06:56:22;;;;;;;8.47;7.30;;;;;;;;;;776899;180;631285;-68
2021/05/19 06:58:48;;;;;;;8.53;6.60;;;;;;;;;;781954;180;630191;-69
2021/05/19 07:01:14;;;;;;;11.90;7.07;;;;;;;;;;775238;178;625981;-68
2021/05/19 07:03:40;;;;;;;7.57;6.30;;;;;;;;;;777543;177;623707;-68
2021/05/19 07:06:07;;;;;;;9.17;7.33;;;;;;;;;;773909;180;1051954;-68
2021/05/19 07:08:33;;;;;;;10.63;8.30;;;;;;;;;;782845;180;629453;-67
2021/05/19 07:10:59;;;;;;;11.73;7.43;;;;;;;;;;776427;178;621505;-69
2021/05/19 07:13:28;;;;;;;9.57;6.80;;;;;;;;;;777930;180;623505;-68
2021/05/19 07:15:53;;;;;;;10.30;6.97;;;;;;;;;;781200;180;649160;-68
2021/05/19 07:18:16;;;;;;;9.10;6.70;;;;;;;;;;777657;178;637810;-68
2021/05/19 07:20:42;;;;;;;10.53;6.80;;;;;;;;;;777948;180;666782;-68
2021/05/19 07:23:08;;;;;;;9.50;6.50;;;;;;;;;;777340;180;633222;-68
2021/05/19 07:25:34;;;;;;;8.40;6.37;;;;;;;;;;779235;180;633502;-68
2021/05/19 07:28:01;;;;;;;8.40;7.03;;;;;;;;;;776303;181;633505;-68
2021/05/19 07:30:25;;;;;;;11.10;7.83;;;;;;;;;;775201;178;633145;-68
2021/05/19 07:32:51;;;;;;;14.53;8.20;;;;;;;;;;776490;178;617547;-68
2021/05/19 07:35:17;;;;;;;8.83;6.37;;;;;;;;;;774868;180;641821;-68
2021/05/19 07:37:43;;;;;;;8.77;7.10;;;;;;;;;;777316;180;626976;-69
2021/05/19 07:40:09;;;;;;;7.10;6.17;;;;;;;;;;781232;180;625386;-70
2021/05/19 07:42:35;;;;;;;10.00;7.97;;;;;;;;;;776827;179;626017;-70
2021/05/19 07:45:01;;;;;;;12.13;7.30;;;;;;;;;;774875;178;641232;-69
2021/05/19 07:47:27;;;;;;;8.43;6.70;;;;;;;;;;777602;180;633837;-69
2021/05/19 07:49:53;;;;;;;8.87;6.53;;;;;;;;;;779398;179;629388;-69
2021/05/19 07:52:18;;;;;;;8.87;6.50;;;;;;;;;;779424;177;633301;-69
2021/05/19 07:54:46;;;;;;;9.30;7.77;;;;;;;;;;783867;177;628467;-68
2021/05/19 07:57:15;;;;;;;8.70;7.47;;;;;;;;;;777869;179;620956;-68
2021/05/19 07:59:37;;;;;;;9.00;7.60;;;;;;;;;;770275;181;627391;-68
2021/05/19 08:02:05;;;;;;;8.50;6.73;;;;;;;;;;775267;179;620269;-69
2021/05/19 08:04:29;;;;;;;7.67;6.00;;;;;;;;;;778484;180;712418;-67
2021/05/19 08:06:55;;;;;;;8.20;5.60;;;;;;;;;;777269;180;928774;-68
2021/05/19 08:09:21;;;;;;;8.57;6.00;;;;;;;;;;778057;180;627650;-67
2021/05/19 08:11:47;;;;;;;8.27;6.50;;;;;;;;;;780930;180;633414;-68
2021/05/19 08:14:14;;;;;;;7.57;6.17;;;;;;;;;;779646;177;637179;-67
2021/05/19 08:16:38;;;;;;;12.10;6.80;;;;;;;;;;778906;177;630864;-67
2021/05/19 08:19:04;;;;;;;7.60;6.77;;;;;;;;;;780125;180;636125;-68
2021/05/19 08:21:30;;;;;;;11.97;6.57;;;;;;;;;;770533;180;617411;-67
2021/05/19 08:23:56;;;;;;;8.47;6.70;;;;;;;;;;773865;180;617217;-67
2021/05/19 08:26:22;;;;;;;7.50;5.97;;;;;;;;;;777165;180;619293;-68
2021/05/19 08:28:49;;;;;;;7.50;5.67;;;;;;;;;;781259;180;631326;-67
2021/05/19 08:31:15;;;;;;;8.87;6.67;;;;;;;;;;780670;177;633542;-67
2021/05/19 08:33:39;;;;;;;9.80;6.10;;;;;;;;;;776000;178;620025;-67
2021/05/19 08:36:05;;;;;;;8.20;6.17;;;;;;;;;;781770;180;632693;-67
2021/05/19 08:38:31;;;;;;;10.57;6.35;;;;;;;;;;776306;178;637534;-67
2021/05/19 08:40:57;;;;;;;13.73;7.43;;;;;;;;;;777769;180;621538;-68
2021/05/19 08:43:23;;;;;;;11.63;6.20;;;;;;;;;;779274;177;616969;-67
2021/05/19 08:45:48;;;;;;;6.77;5.70;;;;;;;;;;777231;179;649344;-69
2021/05/19 08:48:14;;;;;;;7.87;5.57;;;;;;;;;;776428;178;620098;-67
2021/05/19 08:50:40;;;;;;;10.33;5.07;;;;;;;;;;776336;180;808425;-68
2021/05/19 08:53:07;;;;;;;5.20;3.50;;;;;;;;;;776115;181;629346;-68
2021/05/19 08:55:33;;;;;;;8.20;3.80;;;;;;;;;;769999;180;806936;-68
2021/05/19 08:57:59;;;;;;;3.10;2.20;;;;;;;;;;774935;180;624333;-68
2021/05/19 09:00:24;;;;;;;4.03;2.57;;;;;;;;;;783322;178;635722;-68
2021/05/19 09:02:56;;;;;;;6.10;3.57;;;;;;;;;;779970;180;630820;-68
2021/05/19 09:05:22;;;;;;;5.63;2.80;;;;;;;;;;778975;181;628815;-67
2021/05/19 09:07:48;;;;;;;3.47;2.50;;;;;;;;;;781534;180;641399;-67
2021/05/19 09:10:14;;;;;;;4.33;2.60;;;;;;;;;;783884;180;625647;-67
2021/05/19 09:12:40;;;;;;;6.57;3.13;;;;;;;;;;778750;180;622104;-67
2021/05/19 09:15:06;;;;;;;3.43;2.70;;;;;;;;;;767314;179;625852;-66
2021/05/19 09:17:32;;;;;;;3.33;2.17;;;;;;;;;;772202;177;631551;-67
2021/05/19 09:19:57;;;;;;;4.20;2.97;;;;;;;;;;776530;181;618445;-67
2021/05/19 09:22:24;;;;;;;2.60;2.00;;;;;;;;;;773995;180;643635;-67
2021/05/19 09:24:50;;;;;;;4.27;3.30;;;;;;;;;;779720;180;618644;-67
2021/05/19 09:27:16;;;;;;;5.70;4.30;;;;;;;;;;779846;176;619613;-67
2021/05/19 09:29:45;;;;;;;6.33;5.03;;;;;;;;;;772904;180;644494;-67
2021/05/19 09:32:12;;;;;;;8.07;5.33;;;;;;;;;;776265;180;619471;-67
2021/05/19 09:34:38;;;;;;;4.60;3.47;;;;;;;;;;779287;180;624496;-68
2021/05/19 09:37:03;;;;;;;3.20;2.40;;;;;;;;;;775776;180;623712;-67
2021/05/19 09:39:28;;;;;;;4.53;2.07;;;;;;;;;;773427;178;615895;-67
2021/05/19 09:41:55;;;;;;;2.70;1.80;;;;;;;;;;777784;180;626022;-67
2021/05/19 09:44:23;;;;;;;3.53;1.90;;;;;;;;;;776219;180;645616;-67
2021/05/19 09:46:46;;;;;;;3.23;1.70;;;;;;;;;;775480;180;626518;-68
2021/05/19 09:49:13;;;;;;;2.73;1.70;;;;;;;;;;782071;180;615372;-67
2021/05/19 09:51:39;;;;;;;2.77;1.53;;;;;;;;;;773258;180;630939;-68
2021/05/19 09:54:05;;;;;;;2.57;1.50;;;;;;;;;;777395;178;629029;-67
2021/05/19 09:56:31;;;;;;;2.05;1.33;;;;;;;;;;771047;180;640150;-66
2021/05/19 09:58:57;;;;;;;2.47;1.53;;;;;;;;;;777418;180;620625;-66
2021/05/19 10:01:24;;;;;;;3.93;1.30;;;;;;;;;;776171;179;916164;-67
2021/05/19 10:03:48;;;;;;;3.43;1.37;;;;;;;;;;777931;180;631176;-68
2021/05/19 10:06:21;;;;;;;4.30;1.40;;;;;;;;;;780704;180;623793;-67
2021/05/19 10:08:41;;;;;;;2.37;1.13;;;;;;;;;;777516;180;629273;-67
2021/05/19 10:11:07;;;;;;;2.73;1.30;;;;;;;;;;775815;177;626054;-68
2021/05/19 10:13:32;;;;;;;2.20;1.20;;;;;;;;;;783068;180;616238;-67
2021/05/19 10:15:58;;;;;;;2.00;1.30;;;;;;;;;;780113;177;630195;-68
2021/05/19 10:18:24;;;;;;;2.17;1.10;;;;;;;;;;777034;180;635634;-68
2021/05/19 10:20:50;;;;;;;1.93;1.00;;;;;;;;;;784203;180;627928;-65
2021/05/19 10:23:16;;;;;;;1.90;1.10;;;;;;;;;;770892;178;639346;-67
2021/05/19 10:25:43;;;;;;;1.90;1.20;;;;;;;;;;773749;177;641426;-67
2021/05/19 10:28:09;;;;;;;1.70;0.90;;;;;;;;;;778094;180;622852;-66
2021/05/19 10:30:36;;;;;;;2.00;1.10;;;;;;;;;;783289;180;637000;-67
2021/05/19 10:33:02;;;;;;;2.63;1.10;;;;;;;;;;777185;177;625146;-67
2021/05/19 10:35:28;;;;;;;2.37;1.30;;;;;;;;;;775094;179;626268;-66
2021/05/19 10:37:56;;;;;;;2.00;1.30;;;;;;;;;;772728;180;626293;-66
2021/05/19 10:40:28;;;;;;;1.60;0.90;;;;;;;;;;775672;180;627428;-68
2021/05/19 10:42:51;;;;;;;1.57;0.80;;;;;;;;;;776349;178;637194;-66
2021/05/19 10:45:17;;;;;;;7.10;1.17;;;;;;;;;;771425;181;619445;-67
2021/05/19 10:47:45;;;;;;;2.93;1.40;;;;;;;;;;777334;181;625122;-67
2021/05/19 10:50:18;;;;;;;2.47;1.77;;;;;;;;;;775800;180;634113;-67
2021/05/19 10:57:10;;;;;;;2.53;1.60;;;;;;;;;;777868;180;632434;-66
2021/05/19 10:57:42;;;;;;;2.60;1.70;;;;;;;;;;777941;180;632186;-67
2021/05/19 11:00:11;;;;;;;2.00;1.17;;;;;;;;;;776160;180;632520;-66
2021/05/19 11:02:42;;;;;;;3.00;1.57;;;;;;;;;;775155;178;630101;-67
2021/05/19 11:05:10;;;;;;;2.10;1.30;;;;;;;;;;776740;180;635693;-66
2021/05/19 11:07:35;;;;;;;3.43;1.30;;;;;;;;;;765791;181;618533;-67
2021/05/19 11:10:01;;;;;;;3.63;1.63;;;;;;;;;;778299;179;616993;-67
2021/05/19 11:12:37;;;;;;;2.00;1.20;;;;;;;;;;777738;177;629143;-66
2021/05/19 11:15:04;;;;;;;2.70;1.50;;;;;;;;;;777909;180;657111;-66
2021/05/19 11:17:50;;;;;;;3.73;2.27;;;;;;;;;;773954;178;614179;-67
2021/05/19 11:20:07;;;;;;;2.80;2.30;;;;;;;;;;767513;179;1921246;-67
2021/05/19 11:22:31;;;;;;;5.30;2.90;;;;;;;;;;775225;177;627108;-68
2021/05/19 11:24:57;;;;;;;3.67;2.20;;;;;;;;;;779077;179;631726;-66
2021/05/19 11:27:24;;;;;;;3.47;2.27;;;;;;;;;;782878;180;628851;-66
2021/05/19 11:29:50;;;;;;;3.90;2.00;;;;;;;;;;775962;177;629639;-67
2021/05/19 11:32:16;;;;;;;2.37;1.58;;;;;;;;;;779028;180;634839;-67
2021/05/19 11:34:41;;;;;;;2.60;1.87;;;;;;;;;;772444;180;612484;-66
2021/05/19 11:37:07;;;;;;;5.53;1.55;;;;;;;;;;778214;180;625787;-67
2021/05/19 11:39:35;;;;;;;2.93;1.40;;;;;;;;;;779121;177;655061;-67
2021/05/19 11:42:06;;;;;;;2.97;2.40;;;;;;;;;;785880;180;624648;-67
2021/05/19 11:44:31;;;;;;;10.57;6.43;;;;;;;;;;781078;177;616389;-66
2021/05/19 11:46:57;;;;;;;4.27;2.50;;;;;;;;;;777198;180;644543;-66
2021/05/19 11:49:23;;;;;;;3.70;2.10;;;;;;;;;;777090;180;630490;-68
2021/05/19 11:51:49;;;;;;;11.50;9.77;;;;;;;;;;783464;179;633781;-66
2021/05/19 11:54:15;;;;;;;2.90;2.27;;;;;;;;;;777169;178;628954;-67
2021/05/19 11:56:42;;;;;;;10.60;9.60;;;;;;;;;;774857;178;642133;-67
2021/05/19 11:59:14;;;;;;;4.30;3.00;;;;;;;;;;774751;181;919668;-67
2021/05/19 12:01:40;;;;;;;4.60;2.53;;;;;;;;;;778890;180;614698;-67
2021/05/19 12:04:12;;;;;;;3.40;2.20;;;;;;;;;;759662;181;627155;-67
2021/05/19 12:06:37;;;;;;;5.53;2.63;;;;;;;;;;776402;177;618432;-67
2021/05/19 12:09:03;;;;;;;4.80;3.20;;;;;;;;;;772529;180;615169;-67
2021/05/19 12:11:34;;;;;;;5.30;3.87;;;;;;;;;;767887;177;621308;-67
2021/05/19 12:14:02;;;;;;;5.60;3.33;;;;;;;;;;770739;180;640284;-67
2021/05/19 12:16:28;;;;;;;3.43;2.87;;;;;;;;;;777750;180;628488;-67
2021/05/19 12:18:59;;;;;;;5.77;4.37;;;;;;;;;;777271;181;630647;-67
2021/05/19 12:21:25;;;;;;;5.73;3.30;;;;;;;;;;776791;178;642978;-67
2021/05/19 12:23:50;;;;;;;7.60;3.43;;;;;;;;;;777823;178;656945;-67
2021/05/19 12:26:16;;;;;;;4.57;3.60;;;;;;;;;;775254;178;623044;-66
2021/05/19 12:28:42;;;;;;;10.43;3.63;;;;;;;;;;781714;180;626235;-68
2021/05/19 12:31:08;;;;;;;5.67;5.07;;;;;;;;;;778224;180;630015;-67
2021/05/19 12:33:35;;;;;;;7.27;4.80;;;;;;;;;;768443;180;2069895;-67
2021/05/19 12:36:01;;;;;;;10.13;8.57;;;;;;;;;;782980;179;650499;-67
2021/05/19 12:38:27;;;;;;;4.30;3.30;;;;;;;;;;778961;180;624533;-65
2021/05/19 12:40:55;;;;;;;6.23;3.50;;;;;;;;;;777854;177;624482;-67
2021/05/19 12:43:20;;;;;;;14.20;8.97;;;;;;;;;;782177;180;614670;-67
2021/05/19 12:45:47;;;;;;;17.17;9.90;;;;;;;;;;779945;179;616934;-66
2021/05/19 12:48:13;;;;;;;9.33;3.97;;;;;;;;;;770266;180;647138;-67
2021/05/19 12:50:38;;;;;;;8.50;3.33;;;;;;;;;;776429;180;626301;-66
2021/05/19 12:53:04;;;;;;;3.27;2.97;;;;;;;;;;775560;179;634363;-67
2021/05/19 12:55:30;;;;;;;4.03;2.63;;;;;;;;;;779552;179;621407;-66
2021/05/19 12:58:01;;;;;;;3.07;1.70;;;;;;;;;;775481;180;643466;-67
2021/05/19 13:00:27;;;;;;;5.03;2.23;;;;;;;;;;782082;180;624872;-68
2021/05/19 13:02:53;;;;;;;3.33;2.13;;;;;;;;;;766525;182;630368;-67
2021/05/19 13:05:20;;;;;;;2.60;1.70;;;;;;;;;;765849;182;628531;-66
2021/05/19 13:07:47;;;;;;;3.50;1.70;;;;;;;;;;769177;180;626501;-66
2021/05/19 13:10:16;;;;;;;2.30;1.60;;;;;;;;;;771048;181;628760;-66
2021/05/19 13:12:45;;;;;;;3.60;1.73;;;;;;;;;;776774;177;635696;-66
2021/05/19 13:15:11;;;;;;;3.40;1.77;;;;;;;;;;778635;180;628475;-68
2021/05/19 13:17:47;;;;;;;2.97;1.77;;;;;;;;;;779105;180;630059;-68
2021/05/19 13:20:09;;;;;;;3.30;2.33;;;;;;;;;;780441;178;667053;-67
2021/05/19 13:22:35;;;;;;;3.63;1.80;;;;;;;;;;777561;177;620701;-66
2021/05/19 13:24:59;;;;;;;2.37;1.70;;;;;;;;;;765343;178;912845;-68
2021/05/19 13:27:25;;;;;;;2.57;1.77;;;;;;;;;;776754;178;616300;-67
2021/05/19 13:29:53;;;;;;;3.13;1.90;;;;;;;;;;775825;180;632975;-66
2021/05/19 13:32:20;;;;;;;2.83;1.90;;;;;;;;;;775249;181;653461;-67
2021/05/19 13:36:14;;;;;;;4.70;1.93;;;;;;;;;;780546;180;625070;-67
2021/05/19 13:37:14;;;;;;;2.50;2.00;;;;;;;;;;773513;178;618551;-65
2021/05/19 13:39:40;;;;;;;2.47;1.67;;;;;;;;;;775699;180;637052;-65
2021/05/19 13:42:06;;;;;;;3.53;2.20;;;;;;;;;;778149;180;621764;-66
2021/05/19 13:44:32;;;;;;;2.93;2.07;;;;;;;;;;781126;180;620404;-66
2021/05/19 13:46:58;;;;;;;3.90;2.00;;;;;;;;;;779050;177;635565;-66
2021/05/19 13:49:26;;;;;;;5.67;1.80;;;;;;;;;;780524;180;632516;-66
2021/05/19 13:51:49;;;;;;;2.90;1.90;;;;;;;;;;781804;180;617925;-66
2021/05/19 13:54:15;;;;;;;3.30;2.00;;;;;;;;;;771678;179;624297;-66
2021/05/19 13:56:41;;;;;;;3.30;1.93;;;;;;;;;;778866;180;643379;-65
2021/05/19 13:59:07;;;;;;;3.30;2.00;;;;;;;;;;772744;179;623040;-65
2021/05/19 14:01:33;;;;;;;2.67;1.73;;;;;;;;;;776651;180;617217;-67
2021/05/19 14:03:59;;;;;;;3.40;2.00;;;;;;;;;;776457;180;628818;-66
2021/05/19 14:06:24;;;;;;;3.50;1.90;;;;;;;;;;775997;180;619559;-65
2021/05/19 14:08:50;;;;;;;3.53;2.70;;;;;;;;;;782857;180;613625;-65
2021/05/19 14:11:17;;;;;;;2.50;1.83;;;;;;;;;;777842;178;627930;-67
2021/05/19 14:13:55;;;;;;;2.83;1.87;;;;;;;;;;779124;177;626237;-66
2021/05/19 14:16:41;;;;;;;4.57;2.20;;;;;;;;;;775671;180;629822;-66
2021/05/19 14:19:01;;;;;;;4.50;2.50;;;;;;;;;;781062;178;619402;-66